Port Hope, MI

9:09 AM EDT on August 22, 2017 (GMT -0400)
Eastwatch-by-the-Sea | | Change Station

Elev 565 ft 43.95 °N, 82.72 °W | Updated 6 seconds ago

Rain
Rain
71.1 °F
Feels Like 75 °F
N
0.0
Wind Variable Wind from West
Gusts 0.0 mph

Today
High -- | Low -- °F
--% Chance of Precip.
Yesterday
High -- | Low -- °F
Precip. -- in
Pressure 29.75 in
Visibility 10.0 miles
Clouds Mostly Cloudy 2000 ft
Mostly Cloudy 2600 ft
Overcast 5000 ft
Heat Index 75 °F
Dew Point 59 °F
Humidity 65%
Rainfall 0.20 in
Snow Depth Not available.
6:43 AM 8:23 PM
New Moon, 1% visible
METAR KBAX 221254Z AUTO 24012G18KT 10SM -RA BKN020 BKN026 OVC050 22/20 A2975 RMK AO2 T02200195
Pressure 29.75 in
Visibility 10.0 miles
Clouds Mostly Cloudy 2000 ft
Mostly Cloudy 2600 ft
Overcast 5000 ft
Heat Index 75 °F
Dew Point 59 °F
Humidity 65%
Rainfall 0.20 in
Snow Depth Not available.
6:43 AM 8:23 PM
New Moon, 1% visible
METAR KBAX 221254Z AUTO 24012G18KT 10SM -RA BKN020 BKN026 OVC050 22/20 A2975 RMK AO2 T02200195

Get Severe Weather Alerts

Thanks for signing up!

Be on the lookout for a verification email in your inbox.

You'll start receiving the daily forecast at 6 AM.

×

10-Day Weather Forecast

Almanac

Astronomy

Aug. 22, 2017 Rise Set
Actual Time
Civil Twilight
Nautical Twilight
Astronomical Twilight
Moon
Length of Visible Light
Length of Day
Tomorrow will be .
, % of the Moon is Illuminated

Today's Extremes

State Highs State Lows

Community

WunderPhotos

Category 6

Welcome to Category 6. This is the collective home for Weather Underground's featured writeups by Dr. Jeff Masters (right), Bob Henson (left), Chris Burt, and other regular contributors.

Nearby

Air Quality

  Air Quality AQ Index Pollutant
Not available.

Snow Depth

Station Depth Elevation

Earthquake Activity

City Distance Mag. Time & Date
Minimum magnitude displayed is 2.5.

Coastal Water Temperatures

Place Temperature

Stations

Nearby Weather Stations

Station Location Temp. Windchill Dew Point Humidity Wind Precip. Elev Updated Type
                   

Watches & Warnings

There are currently no watches in effect.